sensor_id;sensor_type;location;lat;lon;timestamp;P1;durP1;ratioP1;P2;durP2;ratioP2
25913;SDS011;13718;50.922;5.346;2023-04-30T00:00:13;22.23;;;10.00;;
25913;SDS011;13718;50.922;5.346;2023-04-30T00:02:39;24.88;;;10.18;;
25913;SDS011;13718;50.922;5.346;2023-04-30T00:05:04;22.83;;;10.13;;
25913;SDS011;13718;50.922;5.346;2023-04-30T00:07:30;24.35;;;10.70;;
25913;SDS011;13718;50.922;5.346;2023-04-30T00:09:56;23.17;;;10.73;;
25913;SDS011;13718;50.922;5.346;2023-04-30T00:12:22;27.10;;;10.98;;
25913;SDS011;13718;50.922;5.346;2023-04-30T00:14:47;25.05;;;10.25;;
25913;SDS011;13718;50.922;5.346;2023-04-30T00:17:13;21.85;;;9.93;;
25913;SDS011;13718;50.922;5.346;2023-04-30T00:19:40;25.45;;;10.85;;
25913;SDS011;13718;50.922;5.346;2023-04-30T00:22:06;23.35;;;10.55;;
25913;SDS011;13718;50.922;5.346;2023-04-30T00:24:32;23.85;;;9.98;;
25913;SDS011;13718;50.922;5.346;2023-04-30T00:26:57;25.52;;;10.52;;
25913;SDS011;13718;50.922;5.346;2023-04-30T00:29:23;19.98;;;9.70;;
25913;SDS011;13718;50.922;5.346;2023-04-30T00:31:48;21.10;;;9.70;;
25913;SDS011;13718;50.922;5.346;2023-04-30T00:34:14;20.42;;;9.30;;
25913;SDS011;13718;50.922;5.346;2023-04-30T00:36:40;23.60;;;10.98;;
25913;SDS011;13718;50.922;5.346;2023-04-30T00:39:05;23.60;;;10.77;;
25913;SDS011;13718;50.922;5.346;2023-04-30T00:41:32;20.35;;;10.50;;
25913;SDS011;13718;50.922;5.346;2023-04-30T00:43:59;26.38;;;11.60;;
25913;SDS011;13718;50.922;5.346;2023-04-30T00:46:26;21.27;;;10.43;;
25913;SDS011;13718;50.922;5.346;2023-04-30T00:48:52;25.20;;;11.30;;
25913;SDS011;13718;50.922;5.346;2023-04-30T00:51:19;22.45;;;10.55;;
25913;SDS011;13718;50.922;5.346;2023-04-30T00:53:44;25.85;;;10.52;;
25913;SDS011;13718;50.922;5.346;2023-04-30T00:56:10;23.05;;;10.63;;
25913;SDS011;13718;50.922;5.346;2023-04-30T00:58:38;21.60;;;11.25;;
25913;SDS011;13718;50.922;5.346;2023-04-30T01:01:04;24.05;;;10.43;;
25913;SDS011;13718;50.922;5.346;2023-04-30T01:03:30;24.48;;;10.80;;
25913;SDS011;13718;50.922;5.346;2023-04-30T01:05:56;20.75;;;10.48;;
25913;SDS011;13718;50.922;5.346;2023-04-30T01:08:22;24.40;;;11.68;;
25913;SDS011;13718;50.922;5.346;2023-04-30T01:11:00;26.05;;;11.60;;
25913;SDS011;13718;50.922;5.346;2023-04-30T01:13:33;22.55;;;12.02;;
25913;SDS011;13718;50.922;5.346;2023-04-30T01:16:14;23.52;;;11.63;;
25913;SDS011;13718;50.922;5.346;2023-04-30T01:18:59;23.98;;;11.70;;
25913;SDS011;13718;50.922;5.346;2023-04-30T01:21:28;24.55;;;11.73;;
25913;SDS011;13718;50.922;5.346;2023-04-30T01:29:25;25.02;;;11.98;;
25913;SDS011;13718;50.922;5.346;2023-04-30T01:31:53;22.17;;;12.15;;
25913;SDS011;13718;50.922;5.346;2023-04-30T01:34:18;23.92;;;12.35;;
25913;SDS011;13718;50.922;5.346;2023-04-30T01:36:48;27.80;;;12.70;;
25913;SDS011;13718;50.922;5.346;2023-04-30T01:50:08;28.15;;;14.60;;
25913;SDS011;13718;50.922;5.346;2023-04-30T01:52:44;27.65;;;13.00;;
25913;SDS011;13718;50.922;5.346;2023-04-30T01:55:23;30.63;;;14.50;;
25913;SDS011;13718;50.922;5.346;2023-04-30T01:57:55;29.27;;;13.90;;
25913;SDS011;13718;50.922;5.346;2023-04-30T02:00:23;29.60;;;14.05;;
25913;SDS011;13718;50.922;5.346;2023-04-30T02:02:54;30.55;;;15.63;;
25913;SDS011;13718;50.922;5.346;2023-04-30T02:05:20;27.90;;;15.07;;
25913;SDS011;13718;50.922;5.346;2023-04-30T02:07:46;32.20;;;15.48;;
25913;SDS011;13718;50.922;5.346;2023-04-30T02:10:13;28.17;;;14.95;;
25913;SDS011;13718;50.922;5.346;2023-04-30T02:12:40;29.35;;;15.32;;
25913;SDS011;13718;50.922;5.346;2023-04-30T02:15:06;30.25;;;15.50;;
25913;SDS011;13718;50.922;5.346;2023-04-30T02:17:32;27.23;;;14.70;;
25913;SDS011;13718;50.922;5.346;2023-04-30T02:19:58;33.38;;;16.33;;
25913;SDS011;13718;50.922;5.346;2023-04-30T02:22:24;31.73;;;15.13;;
25913;SDS011;13718;50.922;5.346;2023-04-30T02:24:50;27.73;;;15.75;;
25913;SDS011;13718;50.922;5.346;2023-04-30T02:27:19;29.42;;;15.20;;
25913;SDS011;13718;50.922;5.346;2023-04-30T02:29:46;31.70;;;15.95;;
25913;SDS011;13718;50.922;5.346;2023-04-30T02:32:11;30.40;;;15.85;;
25913;SDS011;13718;50.922;5.346;2023-04-30T02:34:37;28.33;;;15.27;;
25913;SDS011;13718;50.922;5.346;2023-04-30T02:37:02;30.92;;;16.13;;
25913;SDS011;13718;50.922;5.346;2023-04-30T02:39:28;32.00;;;16.55;;
25913;SDS011;13718;50.922;5.346;2023-04-30T02:41:54;34.38;;;17.33;;
25913;SDS011;13718;50.922;5.346;2023-04-30T02:44:20;35.58;;;17.52;;
25913;SDS011;13718;50.922;5.346;2023-04-30T02:46:45;32.40;;;17.30;;
25913;SDS011;13718;50.922;5.346;2023-04-30T02:49:11;35.53;;;18.02;;
25913;SDS011;13718;50.922;5.346;2023-04-30T02:51:36;38.05;;;18.48;;
25913;SDS011;13718;50.922;5.346;2023-04-30T02:54:02;37.58;;;18.13;;
25913;SDS011;13718;50.922;5.346;2023-04-30T02:56:27;34.60;;;18.52;;
25913;SDS011;13718;50.922;5.346;2023-04-30T02:58:53;36.10;;;18.42;;
25913;SDS011;13718;50.922;5.346;2023-04-30T03:01:19;44.38;;;19.98;;
25913;SDS011;13718;50.922;5.346;2023-04-30T03:03:44;34.22;;;18.33;;
25913;SDS011;13718;50.922;5.346;2023-04-30T03:06:10;40.55;;;19.88;;
25913;SDS011;13718;50.922;5.346;2023-04-30T03:08:35;36.28;;;19.08;;
25913;SDS011;13718;50.922;5.346;2023-04-30T03:11:01;40.10;;;20.20;;
25913;SDS011;13718;50.922;5.346;2023-04-30T03:13:27;37.95;;;20.42;;
25913;SDS011;13718;50.922;5.346;2023-04-30T03:15:59;40.63;;;20.27;;
25913;SDS011;13718;50.922;5.346;2023-04-30T03:18:27;37.88;;;19.77;;
25913;SDS011;13718;50.922;5.346;2023-04-30T03:20:53;44.00;;;20.50;;
25913;SDS011;13718;50.922;5.346;2023-04-30T03:23:19;39.78;;;20.38;;
25913;SDS011;13718;50.922;5.346;2023-04-30T03:25:44;42.40;;;21.20;;
25913;SDS011;13718;50.922;5.346;2023-04-30T03:28:10;44.88;;;22.23;;
25913;SDS011;13718;50.922;5.346;2023-04-30T03:30:36;45.00;;;20.98;;
25913;SDS011;13718;50.922;5.346;2023-04-30T03:33:01;44.08;;;21.73;;
25913;SDS011;13718;50.922;5.346;2023-04-30T03:35:27;45.15;;;22.23;;
25913;SDS011;13718;50.922;5.346;2023-04-30T03:37:52;46.10;;;21.75;;
25913;SDS011;13718;50.922;5.346;2023-04-30T03:40:18;43.38;;;22.60;;
25913;SDS011;13718;50.922;5.346;2023-04-30T03:42:44;49.33;;;23.05;;
25913;SDS011;13718;50.922;5.346;2023-04-30T03:45:09;46.10;;;22.67;;
25913;SDS011;13718;50.922;5.346;2023-04-30T03:47:35;46.13;;;22.50;;
25913;SDS011;13718;50.922;5.346;2023-04-30T03:50:01;43.70;;;23.38;;
25913;SDS011;13718;50.922;5.346;2023-04-30T03:52:27;51.03;;;24.10;;
25913;SDS011;13718;50.922;5.346;2023-04-30T03:54:53;46.97;;;24.67;;
25913;SDS011;13718;50.922;5.346;2023-04-30T03:57:19;47.22;;;24.48;;
25913;SDS011;13718;50.922;5.346;2023-04-30T03:59:45;53.75;;;25.02;;
25913;SDS011;13718;50.922;5.346;2023-04-30T04:02:11;50.88;;;24.63;;
25913;SDS011;13718;50.922;5.346;2023-04-30T04:04:36;50.88;;;25.55;;
25913;SDS011;13718;50.922;5.346;2023-04-30T04:07:02;50.92;;;24.90;;
25913;SDS011;13718;50.922;5.346;2023-04-30T04:09:28;48.10;;;24.48;;
25913;SDS011;13718;50.922;5.346;2023-04-30T04:11:54;50.83;;;24.20;;
25913;SDS011;13718;50.922;5.346;2023-04-30T04:14:20;58.08;;;26.35;;
25913;SDS011;13718;50.922;5.346;2023-04-30T04:16:45;52.90;;;26.38;;
25913;SDS011;13718;50.922;5.346;2023-04-30T04:19:11;59.28;;;27.35;;
25913;SDS011;13718;50.922;5.346;2023-04-30T04:21:37;55.53;;;27.30;;
25913;SDS011;13718;50.922;5.346;2023-04-30T04:24:03;57.25;;;25.45;;
25913;SDS011;13718;50.922;5.346;2023-04-30T04:26:33;49.72;;;25.60;;
25913;SDS011;13718;50.922;5.346;2023-04-30T04:29:02;53.05;;;27.65;;
25913;SDS011;13718;50.922;5.346;2023-04-30T04:31:29;56.83;;;27.55;;
25913;SDS011;13718;50.922;5.346;2023-04-30T04:33:55;55.30;;;27.05;;
25913;SDS011;13718;50.922;5.346;2023-04-30T04:36:25;61.65;;;28.98;;
25913;SDS011;13718;50.922;5.346;2023-04-30T04:38:52;57.30;;;28.05;;
25913;SDS011;13718;50.922;5.346;2023-04-30T04:41:18;56.95;;;28.67;;
25913;SDS011;13718;50.922;5.346;2023-04-30T04:43:44;59.50;;;28.27;;
25913;SDS011;13718;50.922;5.346;2023-04-30T04:46:10;56.78;;;28.35;;
25913;SDS011;13718;50.922;5.346;2023-04-30T04:48:36;56.33;;;29.17;;
25913;SDS011;13718;50.922;5.346;2023-04-30T04:51:02;60.92;;;28.65;;
25913;SDS011;13718;50.922;5.346;2023-04-30T04:53:27;59.65;;;28.88;;
25913;SDS011;13718;50.922;5.346;2023-04-30T04:55:53;59.00;;;27.92;;
25913;SDS011;13718;50.922;5.346;2023-04-30T04:58:19;56.13;;;28.15;;
25913;SDS011;13718;50.922;5.346;2023-04-30T05:00:44;53.65;;;27.13;;
25913;SDS011;13718;50.922;5.346;2023-04-30T05:03:10;53.33;;;27.48;;
25913;SDS011;13718;50.922;5.346;2023-04-30T05:05:36;52.30;;;26.38;;
25913;SDS011;13718;50.922;5.346;2023-04-30T05:08:01;50.65;;;26.15;;
25913;SDS011;13718;50.922;5.346;2023-04-30T05:10:27;50.05;;;26.80;;
25913;SDS011;13718;50.922;5.346;2023-04-30T05:12:52;45.22;;;25.23;;
25913;SDS011;13718;50.922;5.346;2023-04-30T05:15:18;46.78;;;24.52;;
25913;SDS011;13718;50.922;5.346;2023-04-30T05:17:44;46.92;;;24.33;;
25913;SDS011;13718;50.922;5.346;2023-04-30T05:20:10;48.88;;;25.20;;
25913;SDS011;13718;50.922;5.346;2023-04-30T05:22:36;46.55;;;23.38;;
25913;SDS011;13718;50.922;5.346;2023-04-30T05:25:02;51.33;;;24.70;;
25913;SDS011;13718;50.922;5.346;2023-04-30T05:27:28;43.28;;;23.98;;
25913;SDS011;13718;50.922;5.346;2023-04-30T05:29:53;46.83;;;23.83;;
25913;SDS011;13718;50.922;5.346;2023-04-30T05:32:20;48.17;;;24.33;;
25913;SDS011;13718;50.922;5.346;2023-04-30T05:34:46;47.90;;;25.05;;
25913;SDS011;13718;50.922;5.346;2023-04-30T05:37:12;46.00;;;24.80;;
25913;SDS011;13718;50.922;5.346;2023-04-30T05:39:39;40.63;;;22.98;;
25913;SDS011;13718;50.922;5.346;2023-04-30T05:42:04;48.03;;;22.27;;
25913;SDS011;13718;50.922;5.346;2023-04-30T05:44:30;42.85;;;22.65;;
25913;SDS011;13718;50.922;5.346;2023-04-30T05:46:55;43.83;;;22.67;;
25913;SDS011;13718;50.922;5.346;2023-04-30T05:49:21;46.83;;;23.15;;
25913;SDS011;13718;50.922;5.346;2023-04-30T05:51:47;45.80;;;23.58;;
25913;SDS011;13718;50.922;5.346;2023-04-30T05:54:12;45.10;;;23.20;;
25913;SDS011;13718;50.922;5.346;2023-04-30T05:56:38;43.25;;;23.02;;
25913;SDS011;13718;50.922;5.346;2023-04-30T05:59:03;40.45;;;21.83;;
25913;SDS011;13718;50.922;5.346;2023-04-30T06:01:29;39.30;;;22.02;;
25913;SDS011;13718;50.922;5.346;2023-04-30T06:03:55;43.00;;;22.25;;
25913;SDS011;13718;50.922;5.346;2023-04-30T06:06:20;35.08;;;19.88;;
25913;SDS011;13718;50.922;5.346;2023-04-30T06:08:46;32.60;;;19.33;;
25913;SDS011;13718;50.922;5.346;2023-04-30T06:11:11;33.00;;;17.65;;
25913;SDS011;13718;50.922;5.346;2023-04-30T06:13:37;33.72;;;17.60;;
25913;SDS011;13718;50.922;5.346;2023-04-30T06:16:04;34.15;;;18.02;;
25913;SDS011;13718;50.922;5.346;2023-04-30T06:18:30;30.27;;;18.17;;
25913;SDS011;13718;50.922;5.346;2023-04-30T06:20:56;32.95;;;17.10;;
25913;SDS011;13718;50.922;5.346;2023-04-30T06:23:21;27.65;;;16.13;;
25913;SDS011;13718;50.922;5.346;2023-04-30T06:25:47;26.95;;;16.33;;
25913;SDS011;13718;50.922;5.346;2023-04-30T06:28:12;30.58;;;17.20;;
25913;SDS011;13718;50.922;5.346;2023-04-30T06:30:38;29.42;;;16.80;;
25913;SDS011;13718;50.922;5.346;2023-04-30T06:33:05;34.22;;;16.48;;
25913;SDS011;13718;50.922;5.346;2023-04-30T06:35:31;28.80;;;17.48;;
25913;SDS011;13718;50.922;5.346;2023-04-30T06:37:56;28.70;;;16.85;;
25913;SDS011;13718;50.922;5.346;2023-04-30T06:40:22;30.02;;;16.85;;
25913;SDS011;13718;50.922;5.346;2023-04-30T06:42:48;27.50;;;16.33;;
25913;SDS011;13718;50.922;5.346;2023-04-30T06:45:13;29.20;;;16.67;;
25913;SDS011;13718;50.922;5.346;2023-04-30T06:47:39;29.88;;;17.50;;
25913;SDS011;13718;50.922;5.346;2023-04-30T06:50:06;31.27;;;17.17;;
25913;SDS011;13718;50.922;5.346;2023-04-30T06:52:32;27.70;;;16.25;;
25913;SDS011;13718;50.922;5.346;2023-04-30T06:54:58;28.67;;;16.77;;
25913;SDS011;13718;50.922;5.346;2023-04-30T06:57:25;28.75;;;16.63;;
25913;SDS011;13718;50.922;5.346;2023-04-30T06:59:51;31.70;;;17.00;;
25913;SDS011;13718;50.922;5.346;2023-04-30T07:02:17;28.45;;;16.75;;
25913;SDS011;13718;50.922;5.346;2023-04-30T07:04:43;28.92;;;16.25;;
25913;SDS011;13718;50.922;5.346;2023-04-30T07:07:09;28.88;;;16.20;;
25913;SDS011;13718;50.922;5.346;2023-04-30T07:09:34;28.52;;;17.10;;
25913;SDS011;13718;50.922;5.346;2023-04-30T07:12:00;29.13;;;17.50;;
25913;SDS011;13718;50.922;5.346;2023-04-30T07:14:26;25.27;;;16.95;;
25913;SDS011;13718;50.922;5.346;2023-04-30T07:16:52;31.27;;;17.92;;
25913;SDS011;13718;50.922;5.346;2023-04-30T07:19:18;27.92;;;17.52;;
25913;SDS011;13718;50.922;5.346;2023-04-30T07:21:44;31.48;;;17.35;;
25913;SDS011;13718;50.922;5.346;2023-04-30T07:24:10;34.38;;;18.10;;
25913;SDS011;13718;50.922;5.346;2023-04-30T07:26:36;27.30;;;16.75;;
25913;SDS011;13718;50.922;5.346;2023-04-30T07:29:02;30.60;;;17.42;;
25913;SDS011;13718;50.922;5.346;2023-04-30T07:31:28;27.88;;;17.00;;
25913;SDS011;13718;50.922;5.346;2023-04-30T07:33:54;28.83;;;16.98;;
25913;SDS011;13718;50.922;5.346;2023-04-30T07:36:20;27.10;;;16.65;;
25913;SDS011;13718;50.922;5.346;2023-04-30T07:38:46;28.33;;;16.55;;
25913;SDS011;13718;50.922;5.346;2023-04-30T07:41:11;27.25;;;16.52;;
25913;SDS011;13718;50.922;5.346;2023-04-30T07:43:37;31.02;;;17.17;;
25913;SDS011;13718;50.922;5.346;2023-04-30T07:46:03;24.77;;;16.30;;
25913;SDS011;13718;50.922;5.346;2023-04-30T07:48:29;26.33;;;16.08;;
25913;SDS011;13718;50.922;5.346;2023-04-30T07:50:54;26.17;;;16.92;;
25913;SDS011;13718;50.922;5.346;2023-04-30T07:53:21;28.00;;;17.55;;
25913;SDS011;13718;50.922;5.346;2023-04-30T07:55:47;26.77;;;15.98;;
25913;SDS011;13718;50.922;5.346;2023-04-30T07:58:13;25.23;;;15.52;;
25913;SDS011;13718;50.922;5.346;2023-04-30T08:00:38;23.33;;;16.27;;
25913;SDS011;13718;50.922;5.346;2023-04-30T08:03:04;25.15;;;16.38;;
25913;SDS011;13718;50.922;5.346;2023-04-30T08:05:30;25.65;;;17.38;;
25913;SDS011;13718;50.922;5.346;2023-04-30T08:07:55;24.05;;;16.90;;
25913;SDS011;13718;50.922;5.346;2023-04-30T08:10:21;26.80;;;16.40;;
25913;SDS011;13718;50.922;5.346;2023-04-30T08:12:47;22.63;;;15.70;;
25913;SDS011;13718;50.922;5.346;2023-04-30T08:15:12;23.13;;;14.73;;
25913;SDS011;13718;50.922;5.346;2023-04-30T08:17:38;22.40;;;15.27;;
25913;SDS011;13718;50.922;5.346;2023-04-30T08:20:04;23.77;;;15.73;;
25913;SDS011;13718;50.922;5.346;2023-04-30T08:22:30;23.52;;;15.10;;
25913;SDS011;13718;50.922;5.346;2023-04-30T08:24:56;22.25;;;16.20;;
25913;SDS011;13718;50.922;5.346;2023-04-30T08:27:22;25.00;;;15.50;;
25913;SDS011;13718;50.922;5.346;2023-04-30T08:29:48;26.92;;;16.50;;
25913;SDS011;13718;50.922;5.346;2023-04-30T08:32:13;20.27;;;15.70;;
25913;SDS011;13718;50.922;5.346;2023-04-30T08:34:39;23.98;;;15.98;;
25913;SDS011;13718;50.922;5.346;2023-04-30T08:37:06;21.38;;;14.75;;
25913;SDS011;13718;50.922;5.346;2023-04-30T08:39:31;21.27;;;14.52;;
25913;SDS011;13718;50.922;5.346;2023-04-30T08:41:59;23.05;;;15.65;;
25913;SDS011;13718;50.922;5.346;2023-04-30T08:44:27;23.75;;;15.90;;
25913;SDS011;13718;50.922;5.346;2023-04-30T08:46:54;20.88;;;13.43;;
25913;SDS011;13718;50.922;5.346;2023-04-30T08:49:22;28.08;;;13.85;;
25913;SDS011;13718;50.922;5.346;2023-04-30T08:51:49;20.48;;;14.18;;
25913;SDS011;13718;50.922;5.346;2023-04-30T08:54:15;20.63;;;14.20;;
25913;SDS011;13718;50.922;5.346;2023-04-30T08:56:43;19.88;;;12.68;;
25913;SDS011;13718;50.922;5.346;2023-04-30T08:59:10;21.63;;;13.00;;
25913;SDS011;13718;50.922;5.346;2023-04-30T09:01:36;21.85;;;12.55;;
25913;SDS011;13718;50.922;5.346;2023-04-30T09:04:02;21.10;;;12.85;;
25913;SDS011;13718;50.922;5.346;2023-04-30T09:06:29;23.35;;;13.57;;
25913;SDS011;13718;50.922;5.346;2023-04-30T09:08:55;20.60;;;11.65;;
25913;SDS011;13718;50.922;5.346;2023-04-30T09:11:30;18.70;;;11.20;;
25913;SDS011;13718;50.922;5.346;2023-04-30T09:13:57;16.05;;;10.00;;
25913;SDS011;13718;50.922;5.346;2023-04-30T09:16:27;17.95;;;10.27;;
25913;SDS011;13718;50.922;5.346;2023-04-30T09:18:56;18.20;;;12.07;;
25913;SDS011;13718;50.922;5.346;2023-04-30T09:21:32;16.08;;;9.52;;
25913;SDS011;13718;50.922;5.346;2023-04-30T09:24:00;17.08;;;10.38;;
25913;SDS011;13718;50.922;5.346;2023-04-30T09:28:56;18.67;;;11.20;;
25913;SDS011;13718;50.922;5.346;2023-04-30T09:31:23;16.13;;;9.95;;
25913;SDS011;13718;50.922;5.346;2023-04-30T09:33:49;17.25;;;11.18;;
25913;SDS011;13718;50.922;5.346;2023-04-30T09:36:15;17.92;;;10.63;;
25913;SDS011;13718;50.922;5.346;2023-04-30T09:38:41;19.52;;;10.25;;
25913;SDS011;13718;50.922;5.346;2023-04-30T09:41:20;15.75;;;9.43;;
25913;SDS011;13718;50.922;5.346;2023-04-30T09:43:47;13.48;;;8.57;;
25913;SDS011;13718;50.922;5.346;2023-04-30T09:46:13;16.10;;;9.02;;
25913;SDS011;13718;50.922;5.346;2023-04-30T09:48:42;15.18;;;9.38;;
25913;SDS011;13718;50.922;5.346;2023-04-30T09:51:08;12.85;;;8.13;;
25913;SDS011;13718;50.922;5.346;2023-04-30T09:53:37;12.70;;;7.97;;
25913;SDS011;13718;50.922;5.346;2023-04-30T09:56:06;12.90;;;7.70;;
25913;SDS011;13718;50.922;5.346;2023-04-30T09:58:35;9.32;;;6.15;;
25913;SDS011;13718;50.922;5.346;2023-04-30T10:01:03;12.52;;;7.38;;
25913;SDS011;13718;50.922;5.346;2023-04-30T10:03:31;13.10;;;7.55;;
25913;SDS011;13718;50.922;5.346;2023-04-30T10:05:57;11.45;;;6.70;;
25913;SDS011;13718;50.922;5.346;2023-04-30T10:10:58;11.80;;;6.35;;
25913;SDS011;13718;50.922;5.346;2023-04-30T10:18:57;14.05;;;8.20;;
25913;SDS011;13718;50.922;5.346;2023-04-30T10:21:27;12.45;;;6.50;;
25913;SDS011;13718;50.922;5.346;2023-04-30T10:23:53;10.70;;;6.22;;
25913;SDS011;13718;50.922;5.346;2023-04-30T10:26:19;14.35;;;7.88;;
25913;SDS011;13718;50.922;5.346;2023-04-30T10:28:47;12.10;;;7.47;;
25913;SDS011;13718;50.922;5.346;2023-04-30T10:31:14;12.05;;;8.15;;
25913;SDS011;13718;50.922;5.346;2023-04-30T10:36:56;11.00;;;6.65;;
25913;SDS011;13718;50.922;5.346;2023-04-30T10:39:28;12.85;;;7.15;;
25913;SDS011;13718;50.922;5.346;2023-04-30T10:42:01;12.02;;;6.93;;
25913;SDS011;13718;50.922;5.346;2023-04-30T10:44:28;9.95;;;5.47;;
25913;SDS011;13718;50.922;5.346;2023-04-30T10:47:01;10.68;;;6.88;;
25913;SDS011;13718;50.922;5.346;2023-04-30T10:49:27;13.07;;;6.50;;
25913;SDS011;13718;50.922;5.346;2023-04-30T10:51:53;14.20;;;7.03;;
25913;SDS011;13718;50.922;5.346;2023-04-30T10:54:24;11.95;;;7.20;;
25913;SDS011;13718;50.922;5.346;2023-04-30T10:57:16;13.20;;;7.00;;
25913;SDS011;13718;50.922;5.346;2023-04-30T10:59:51;11.95;;;7.00;;
25913;SDS011;13718;50.922;5.346;2023-04-30T11:02:18;11.07;;;6.30;;
25913;SDS011;13718;50.922;5.346;2023-04-30T11:07:31;8.05;;;4.93;;
25913;SDS011;13718;50.922;5.346;2023-04-30T11:09:57;9.07;;;5.35;;
25913;SDS011;13718;50.922;5.346;2023-04-30T11:12:25;11.60;;;5.90;;
25913;SDS011;13718;50.922;5.346;2023-04-30T11:14:59;8.07;;;4.70;;
25913;SDS011;13718;50.922;5.346;2023-04-30T11:17:37;7.18;;;4.95;;
25913;SDS011;13718;50.922;5.346;2023-04-30T11:20:03;8.48;;;4.07;;
25913;SDS011;13718;50.922;5.346;2023-04-30T11:22:29;9.63;;;5.28;;
25913;SDS011;13718;50.922;5.346;2023-04-30T11:25:07;7.30;;;4.72;;
25913;SDS011;13718;50.922;5.346;2023-04-30T11:27:34;9.52;;;5.05;;
25913;SDS011;13718;50.922;5.346;2023-04-30T11:30:01;10.05;;;4.47;;
25913;SDS011;13718;50.922;5.346;2023-04-30T11:32:33;6.03;;;3.55;;
25913;SDS011;13718;50.922;5.346;2023-04-30T11:35:00;7.15;;;4.20;;
25913;SDS011;13718;50.922;5.346;2023-04-30T11:37:32;11.15;;;4.97;;
25913;SDS011;13718;50.922;5.346;2023-04-30T11:40:09;9.25;;;4.70;;
25913;SDS011;13718;50.922;5.346;2023-04-30T11:42:36;6.35;;;4.20;;
25913;SDS011;13718;50.922;5.346;2023-04-30T11:47:46;10.63;;;4.18;;
25913;SDS011;13718;50.922;5.346;2023-04-30T11:50:13;6.40;;;4.13;;
25913;SDS011;13718;50.922;5.346;2023-04-30T11:52:40;7.60;;;4.22;;
25913;SDS011;13718;50.922;5.346;2023-04-30T11:57:40;6.78;;;3.85;;
25913;SDS011;13718;50.922;5.346;2023-04-30T12:00:11;6.78;;;3.72;;
25913;SDS011;13718;50.922;5.346;2023-04-30T12:02:39;9.13;;;4.80;;
25913;SDS011;13718;50.922;5.346;2023-04-30T12:05:13;8.10;;;4.60;;
25913;SDS011;13718;50.922;5.346;2023-04-30T12:08:06;7.18;;;3.97;;
25913;SDS011;13718;50.922;5.346;2023-04-30T12:10:31;7.45;;;4.18;;
25913;SDS011;13718;50.922;5.346;2023-04-30T12:12:56;8.52;;;4.00;;
25913;SDS011;13718;50.922;5.346;2023-04-30T12:15:23;6.47;;;3.70;;
25913;SDS011;13718;50.922;5.346;2023-04-30T12:17:56;6.38;;;3.10;;
25913;SDS011;13718;50.922;5.346;2023-04-30T12:20:23;8.75;;;4.03;;
25913;SDS011;13718;50.922;5.346;2023-04-30T12:22:53;6.65;;;2.97;;
25913;SDS011;13718;50.922;5.346;2023-04-30T12:25:20;7.38;;;4.00;;
25913;SDS011;13718;50.922;5.346;2023-04-30T12:27:50;8.68;;;5.00;;
25913;SDS011;13718;50.922;5.346;2023-04-30T12:30:23;7.15;;;3.75;;
25913;SDS011;13718;50.922;5.346;2023-04-30T12:32:51;5.35;;;3.15;;
25913;SDS011;13718;50.922;5.346;2023-04-30T12:35:18;4.63;;;2.88;;
25913;SDS011;13718;50.922;5.346;2023-04-30T12:37:46;7.20;;;2.92;;
25913;SDS011;13718;50.922;5.346;2023-04-30T12:40:16;4.78;;;2.60;;
25913;SDS011;13718;50.922;5.346;2023-04-30T12:42:43;5.35;;;3.30;;
25913;SDS011;13718;50.922;5.346;2023-04-30T12:45:11;5.10;;;2.47;;
25913;SDS011;13718;50.922;5.346;2023-04-30T12:47:38;48.78;;;16.65;;
25913;SDS011;13718;50.922;5.346;2023-04-30T12:50:11;6.65;;;3.30;;
25913;SDS011;13718;50.922;5.346;2023-04-30T12:52:37;4.70;;;2.80;;
25913;SDS011;13718;50.922;5.346;2023-04-30T12:55:16;5.65;;;2.60;;
25913;SDS011;13718;50.922;5.346;2023-04-30T12:58:05;4.15;;;1.90;;
25913;SDS011;13718;50.922;5.346;2023-04-30T13:00:41;4.10;;;2.00;;
25913;SDS011;13718;50.922;5.346;2023-04-30T13:03:07;5.82;;;2.63;;
25913;SDS011;13718;50.922;5.346;2023-04-30T13:05:33;4.20;;;2.40;;
25913;SDS011;13718;50.922;5.346;2023-04-30T13:08:02;5.00;;;2.28;;
25913;SDS011;13718;50.922;5.346;2023-04-30T13:10:30;4.63;;;2.20;;
25913;SDS011;13718;50.922;5.346;2023-04-30T13:12:56;4.50;;;2.20;;
25913;SDS011;13718;50.922;5.346;2023-04-30T13:15:22;4.53;;;2.08;;
25913;SDS011;13718;50.922;5.346;2023-04-30T13:17:47;4.15;;;2.08;;
25913;SDS011;13718;50.922;5.346;2023-04-30T13:20:14;6.13;;;2.40;;
25913;SDS011;13718;50.922;5.346;2023-04-30T13:22:40;3.92;;;2.28;;
25913;SDS011;13718;50.922;5.346;2023-04-30T13:25:05;3.35;;;1.88;;
25913;SDS011;13718;50.922;5.346;2023-04-30T13:27:32;3.95;;;1.63;;
25913;SDS011;13718;50.922;5.346;2023-04-30T13:29:58;2.85;;;1.60;;
25913;SDS011;13718;50.922;5.346;2023-04-30T13:32:24;3.15;;;1.80;;
25913;SDS011;13718;50.922;5.346;2023-04-30T13:34:49;9.70;;;3.85;;
25913;SDS011;13718;50.922;5.346;2023-04-30T13:37:18;4.05;;;2.42;;
25913;SDS011;13718;50.922;5.346;2023-04-30T13:39:44;4.68;;;2.33;;
25913;SDS011;13718;50.922;5.346;2023-04-30T13:42:10;3.63;;;2.10;;
25913;SDS011;13718;50.922;5.346;2023-04-30T13:44:37;3.78;;;2.00;;
25913;SDS011;13718;50.922;5.346;2023-04-30T13:47:03;2.88;;;1.80;;
25913;SDS011;13718;50.922;5.346;2023-04-30T13:49:29;4.28;;;1.90;;
25913;SDS011;13718;50.922;5.346;2023-04-30T13:51:55;3.30;;;2.05;;
25913;SDS011;13718;50.922;5.346;2023-04-30T13:54:20;4.53;;;2.60;;
25913;SDS011;13718;50.922;5.346;2023-04-30T13:56:46;4.97;;;2.00;;
25913;SDS011;13718;50.922;5.346;2023-04-30T13:59:13;5.65;;;2.08;;
25913;SDS011;13718;50.922;5.346;2023-04-30T14:01:39;3.30;;;1.80;;
25913;SDS011;13718;50.922;5.346;2023-04-30T14:04:06;2.50;;;1.63;;
25913;SDS011;13718;50.922;5.346;2023-04-30T14:06:32;3.78;;;1.30;;
25913;SDS011;13718;50.922;5.346;2023-04-30T14:08:58;2.38;;;1.55;;
25913;SDS011;13718;50.922;5.346;2023-04-30T14:11:24;4.20;;;1.90;;
25913;SDS011;13718;50.922;5.346;2023-04-30T14:13:51;2.90;;;1.67;;
25913;SDS011;13718;50.922;5.346;2023-04-30T14:16:16;5.72;;;2.38;;
25913;SDS011;13718;50.922;5.346;2023-04-30T14:18:44;3.97;;;2.10;;
25913;SDS011;13718;50.922;5.346;2023-04-30T14:21:10;3.05;;;1.80;;
25913;SDS011;13718;50.922;5.346;2023-04-30T14:23:36;4.80;;;1.80;;
25913;SDS011;13718;50.922;5.346;2023-04-30T14:26:02;3.90;;;1.73;;
25913;SDS011;13718;50.922;5.346;2023-04-30T14:28:29;3.50;;;1.75;;
25913;SDS011;13718;50.922;5.346;2023-04-30T14:30:54;2.33;;;1.40;;
25913;SDS011;13718;50.922;5.346;2023-04-30T14:33:20;3.75;;;1.75;;
25913;SDS011;13718;50.922;5.346;2023-04-30T14:35:46;3.75;;;2.10;;
25913;SDS011;13718;50.922;5.346;2023-04-30T14:38:12;3.92;;;1.95;;
25913;SDS011;13718;50.922;5.346;2023-04-30T14:40:38;3.95;;;1.67;;
25913;SDS011;13718;50.922;5.346;2023-04-30T14:43:03;6.63;;;2.05;;
25913;SDS011;13718;50.922;5.346;2023-04-30T14:45:29;4.22;;;1.70;;
25913;SDS011;13718;50.922;5.346;2023-04-30T14:47:57;4.68;;;2.65;;
25913;SDS011;13718;50.922;5.346;2023-04-30T14:50:23;5.90;;;3.05;;
25913;SDS011;13718;50.922;5.346;2023-04-30T14:52:49;3.90;;;2.25;;
25913;SDS011;13718;50.922;5.346;2023-04-30T14:55:15;2.67;;;1.90;;
25913;SDS011;13718;50.922;5.346;2023-04-30T14:57:41;5.25;;;1.73;;
25913;SDS011;13718;50.922;5.346;2023-04-30T15:00:07;5.40;;;1.90;;
25913;SDS011;13718;50.922;5.346;2023-04-30T15:02:33;6.43;;;2.28;;
25913;SDS011;13718;50.922;5.346;2023-04-30T15:05:01;4.32;;;1.98;;
25913;SDS011;13718;50.922;5.346;2023-04-30T15:09:57;6.63;;;2.30;;